TAF Text Data
IDs:
Format:
Raw Decoded Include METAR

Data at: 1241 UTC 23 Jun 2021

TAF KHUA 231200Z 2312/2418 VRB06KT 9999 SKC QNH3007INS
  BECMG 2414/2415 13010G15KT 9999 FEW020 QNH3014INS TX27/2320Z TN14/2312Z